Time;durP1;ratioP1;P1;durP2;ratioP2;P2;SDS_P1;SDS_P2;PMS_P1;PMS_P2;Temp;Humidity;BMP_temperature;BMP_pressure;BME280_temperature;BME280_humidity;BME280_pressure;Samples;Min_cycle;Max_cycle;Signal;HPM_P1;HPM_P2
2021/07/14 00:01:19;;;;;;;4.37;4.07;;;29.90;68.90;;;;;;5145851;27;20448;-26
2021/07/14 00:03:50;;;;;;;4.67;4.30;;;29.70;67.70;;;;;;5145970;27;20474;-24
2021/07/14 00:06:37;;;;;;;6.30;4.87;;;29.70;69.20;;;;;;5146373;27;20439;-25
2021/07/14 00:09:09;;;;;;;5.30;4.90;;;29.60;70.40;;;;;;5145611;27;20536;-24
2021/07/14 00:11:42;;;;;;;5.63;5.13;;;29.70;71.50;;;;;;5132559;27;20798;-27
2021/07/14 00:14:28;;;;;;;6.37;4.40;;;29.60;71.50;;;;;;5125273;28;20871;-25
2021/07/14 00:17:16;;;;;;;7.53;6.70;;;29.60;71.50;;;;;;5125298;28;20442;-27
2021/07/14 00:22:38;;;;;;;4.67;4.27;;;29.50;72.70;;;;;;5125058;28;20443;-27
2021/07/14 00:25:12;;;;;;;7.33;4.87;;;29.40;72.10;;;;;;5125167;28;20447;-26
2021/07/14 00:27:49;;;;;;;6.00;4.80;;;29.20;73.20;;;;;;5124272;28;20501;-28
2021/07/14 00:30:26;;;;;;;5.20;4.60;;;29.20;73.90;;;;;;5124775;28;20457;-27
2021/07/14 00:32:57;;;;;;;5.77;4.70;;;29.10;74.20;;;;;;5124689;28;20447;-27
2021/07/14 00:35:33;;;;;;;5.43;4.57;;;29.10;73.80;;;;;;5126788;27;20448;-27
2021/07/14 00:38:04;;;;;;;6.70;5.00;;;29.10;73.40;;;;;;5143335;27;20479;-30
2021/07/14 00:40:35;;;;;;;5.07;4.57;;;28.80;74.20;;;;;;5144967;27;20463;-27
2021/07/14 00:43:08;;;;;;;5.93;4.97;;;28.60;76.40;;;;;;5138216;27;20532;-29
2021/07/14 00:45:41;;;;;;;4.77;4.27;;;28.70;76.50;;;;;;5137989;27;20477;-26
2021/07/14 00:48:14;;;;;;;5.23;4.80;;;28.70;75.80;;;;;;5142456;27;20962;-28
2021/07/14 00:50:45;;;;;;;5.20;4.77;;;28.60;76.10;;;;;;5132995;27;20487;-23
2021/07/14 00:53:16;;;;;;;4.00;3.70;;;28.50;76.10;;;;;;5136791;27;20816;-25
2021/07/14 00:55:47;;;;;;;5.43;4.40;;;28.40;76.50;;;;;;5139805;27;20445;-24
2021/07/14 00:58:18;;;;;;;5.57;4.50;;;28.30;76.50;;;;;;5134020;27;20461;-26
2021/07/14 01:00:51;;;;;;;7.40;4.93;;;28.40;76.50;;;;;;5144386;27;20450;-29
2021/07/14 01:03:27;;;;;;;5.53;4.80;;;28.30;76.60;;;;;;5144016;27;20816;-26
2021/07/14 01:06:03;;;;;;;5.90;5.33;;;28.20;77.20;;;;;;5142787;27;20452;-27
2021/07/14 01:08:41;;;;;;;5.13;4.50;;;28.20;77.40;;;;;;5144145;27;20491;-25
2021/07/14 01:11:17;;;;;;;6.53;4.67;;;28.10;76.50;;;;;;5140909;27;20460;-24
2021/07/14 01:13:56;;;;;;;5.13;4.73;;;28.10;77.10;;;;;;5144263;27;20466;-27
2021/07/14 01:16:35;;;;;;;4.83;4.40;;;28.10;77.00;;;;;;5144410;27;20450;-22
2021/07/14 01:19:19;;;;;;;4.93;4.53;;;28.00;77.20;;;;;;5142479;27;20451;-26
2021/07/14 01:21:54;;;;;;;4.90;4.50;;;28.00;76.20;;;;;;5145651;27;20494;-23
2021/07/14 01:24:32;;;;;;;5.10;4.20;;;27.90;77.00;;;;;;5149122;27;20492;-27
2021/07/14 01:27:17;;;;;;;8.20;5.80;;;27.90;76.90;;;;;;5138044;27;20482;-24
2021/07/14 01:29:51;;;;;;;7.23;6.33;;;27.90;76.80;;;;;;5147501;27;20522;-27
2021/07/14 01:32:25;;;;;;;5.90;5.40;;;27.80;77.50;;;;;;5147215;27;20489;-25
2021/07/14 01:35:00;;;;;;;6.30;5.70;;;27.80;77.00;;;;;;5148013;27;20491;-26
2021/07/14 01:37:33;;;;;;;5.43;4.93;;;27.70;78.20;;;;;;5148588;27;20472;-26
2021/07/14 01:40:07;;;;;;;10.30;5.50;;;27.70;78.90;;;;;;5143097;27;20471;-26
2021/07/14 01:42:41;;;;;;;13.43;12.03;;;27.70;78.90;;;;;;5146135;27;20517;-27
2021/07/14 01:45:14;;;;;;;7.73;6.90;;;27.70;78.20;;;;;;5148702;27;20544;-27
2021/07/14 01:47:49;;;;;;;7.30;5.80;;;27.70;79.30;;;;;;5148221;27;20454;-27
2021/07/14 01:50:21;;;;;;;13.60;11.73;;;27.70;77.80;;;;;;5148787;27;20569;-27
2021/07/14 01:52:54;;;;;;;7.57;6.63;;;27.60;78.70;;;;;;5147183;27;20475;-26
2021/07/14 01:55:27;;;;;;;9.90;9.00;;;27.60;79.80;;;;;;5148360;27;20479;-25
2021/07/14 01:58:01;;;;;;;14.90;13.37;;;27.50;79.70;;;;;;5147687;27;20457;-26
2021/07/14 02:00:34;;;;;;;9.67;8.67;;;27.50;80.00;;;;;;5148175;27;20561;-26
2021/07/14 02:03:15;;;;;;;6.10;5.50;;;27.40;80.90;;;;;;5144833;27;20439;-25
2021/07/14 02:05:47;;;;;;;7.97;5.60;;;27.40;80.30;;;;;;5147978;27;20469;-24
2021/07/14 02:08:18;;;;;;;22.03;19.83;;;27.40;80.00;;;;;;5148062;27;20457;-25
2021/07/14 02:10:50;;;;;;;5.60;4.80;;;27.20;81.00;;;;;;5145730;27;20450;-27
2021/07/14 02:13:28;;;;;;;5.47;4.93;;;27.10;81.50;;;;;;5146968;27;20506;-28
2021/07/14 02:16:01;;;;;;;5.83;4.53;;;27.00;82.20;;;;;;5148127;27;20441;-29
2021/07/14 02:18:40;;;;;;;5.90;5.30;;;26.90;81.70;;;;;;5145689;27;20447;-25
2021/07/14 02:21:11;;;;;;;5.53;5.00;;;26.80;82.50;;;;;;5139971;27;20490;-26
2021/07/14 02:23:43;;;;;;;5.53;4.83;;;26.80;82.70;;;;;;5146878;27;20479;-24
2021/07/14 02:26:13;;;;;;;5.13;4.70;;;26.70;83.70;;;;;;5145308;27;20450;-24
2021/07/14 02:28:46;;;;;;;5.80;4.83;;;26.70;84.20;;;;;;5146550;27;20477;-24
2021/07/14 02:31:17;;;;;;;5.83;4.77;;;26.70;85.00;;;;;;5148586;27;20476;-28
2021/07/14 02:33:48;;;;;;;7.10;5.57;;;26.70;83.70;;;;;;5144837;27;20504;-24
2021/07/14 02:36:21;;;;;;;5.40;4.90;;;26.70;83.70;;;;;;5147395;27;20445;-25
2021/07/14 02:38:57;;;;;;;5.60;5.10;;;26.60;83.70;;;;;;5147253;27;20445;-26
2021/07/14 02:41:30;;;;;;;5.40;4.83;;;26.40;84.60;;;;;;5148435;27;20471;-24
2021/07/14 02:44:08;;;;;;;5.40;4.90;;;26.30;85.60;;;;;;5146159;27;20519;-24
2021/07/14 02:46:42;;;;;;;6.47;5.47;;;26.20;85.50;;;;;;5135652;27;20478;-28
2021/07/14 02:49:15;;;;;;;5.53;4.80;;;26.10;85.40;;;;;;5146959;27;20543;-24
2021/07/14 02:51:47;;;;;;;5.50;4.70;;;25.90;86.20;;;;;;5147052;27;20509;-23
2021/07/14 02:54:26;;;;;;;5.77;5.20;;;25.90;86.60;;;;;;5146916;27;20482;-27
2021/07/14 02:57:01;;;;;;;5.27;4.67;;;25.70;86.30;;;;;;5143361;27;20805;-23
2021/07/14 02:59:36;;;;;;;6.23;5.07;;;25.60;86.90;;;;;;5142246;27;20497;-26
2021/07/14 03:02:10;;;;;;;8.37;6.37;;;25.60;87.40;;;;;;5144260;27;20472;-26
2021/07/14 03:04:44;;;;;;;5.63;4.90;;;25.50;87.60;;;;;;5146481;27;20473;-25
2021/07/14 03:07:18;;;;;;;5.37;4.87;;;25.40;88.60;;;;;;5143554;27;20425;-24
2021/07/14 03:09:51;;;;;;;5.90;5.30;;;25.30;88.20;;;;;;5145983;27;20956;-24
2021/07/14 03:12:24;;;;;;;6.33;4.60;;;25.30;88.40;;;;;;5145320;27;20470;-23
2021/07/14 03:15:02;;;;;;;7.00;4.90;;;25.10;88.90;;;;;;5146325;27;20445;-25
2021/07/14 03:17:34;;;;;;;8.70;5.20;;;25.00;88.80;;;;;;5144100;27;20451;-25
2021/07/14 03:20:08;;;;;;;4.83;4.20;;;24.90;89.20;;;;;;5143301;27;20440;-26
2021/07/14 03:22:40;;;;;;;6.07;5.33;;;24.80;89.20;;;;;;5146237;27;20457;-27
2021/07/14 03:25:13;;;;;;;6.10;5.53;;;24.60;90.00;;;;;;5145987;27;20464;-25
2021/07/14 03:27:47;;;;;;;5.60;5.07;;;24.50;90.20;;;;;;5145417;27;20491;-27
2021/07/14 03:30:21;;;;;;;7.40;4.90;;;24.40;90.30;;;;;;5143720;27;20481;-24
2021/07/14 03:32:52;;;;;;;5.30;4.80;;;24.40;90.60;;;;;;5145551;27;20448;-25
2021/07/14 03:35:23;;;;;;;6.93;5.70;;;24.20;90.70;;;;;;5144572;27;20973;-26
2021/07/14 03:37:55;;;;;;;7.40;5.40;;;24.20;90.50;;;;;;5146502;27;20483;-24
2021/07/14 03:40:26;;;;;;;6.10;4.83;;;24.10;90.60;;;;;;5145776;27;20445;-26
2021/07/14 03:42:58;;;;;;;5.20;4.70;;;24.00;90.70;;;;;;5145391;27;21066;-25
2021/07/14 03:45:32;;;;;;;5.73;5.13;;;23.90;90.60;;;;;;5145921;27;20508;-24
2021/07/14 03:48:04;;;;;;;5.17;4.67;;;23.80;90.80;;;;;;5144595;27;20447;-23
2021/07/14 03:50:38;;;;;;;7.03;5.37;;;23.70;91.00;;;;;;5144279;27;20936;-27
2021/07/14 03:53:09;;;;;;;5.90;5.30;;;23.50;91.40;;;;;;5139255;27;20451;-25
2021/07/14 03:55:40;;;;;;;5.33;4.70;;;23.50;91.10;;;;;;5144929;27;20480;-29
2021/07/14 03:58:12;;;;;;;8.57;5.37;;;23.40;91.40;;;;;;5144224;27;20476;-27
2021/07/14 04:00:45;;;;;;;5.40;4.90;;;23.30;91.50;;;;;;5142837;27;20481;-26
2021/07/14 04:03:21;;;;;;;5.60;5.10;;;23.30;91.50;;;;;;5144694;27;20455;-26
2021/07/14 04:05:56;;;;;;;5.60;4.77;;;23.20;91.60;;;;;;5146012;27;20433;-28
2021/07/14 04:08:38;;;;;;;6.27;5.00;;;23.10;91.60;;;;;;5145744;27;20493;-25
2021/07/14 04:11:09;;;;;;;5.70;5.10;;;22.90;91.90;;;;;;5144120;27;20849;-25
2021/07/14 04:13:40;;;;;;;7.30;6.60;;;22.80;92.00;;;;;;5143523;27;20453;-29
2021/07/14 04:16:13;;;;;;;5.50;5.00;;;22.70;92.00;;;;;;5145721;27;20426;-24
2021/07/14 04:18:44;;;;;;;5.63;5.13;;;22.60;92.00;;;;;;5144637;27;20457;-25
2021/07/14 04:21:14;;;;;;;6.03;5.40;;;22.50;92.00;;;;;;5144849;27;20483;-26
2021/07/14 04:23:45;;;;;;;6.67;5.83;;;22.40;92.20;;;;;;5145043;27;20441;-26
2021/07/14 04:26:16;;;;;;;5.80;5.20;;;22.40;92.20;;;;;;5145967;27;20478;-25
2021/07/14 04:28:47;;;;;;;5.47;4.97;;;22.30;92.30;;;;;;5143100;27;20437;-27
2021/07/14 04:31:20;;;;;;;6.57;5.47;;;22.20;92.50;;;;;;5144785;27;20488;-26
2021/07/14 04:33:51;;;;;;;5.80;4.87;;;22.20;92.90;;;;;;5143494;27;20489;-24
2021/07/14 04:36:22;;;;;;;7.20;5.33;;;22.10;92.40;;;;;;5145208;27;20455;-23
2021/07/14 04:38:53;;;;;;;9.23;6.57;;;22.00;92.90;;;;;;5144507;27;20865;-26
2021/07/14 04:41:23;;;;;;;7.17;6.47;;;21.90;92.80;;;;;;5144739;27;20476;-27
2021/07/14 04:43:58;;;;;;;9.07;6.20;;;21.90;92.70;;;;;;5144518;27;20447;-25
2021/07/14 04:46:31;;;;;;;6.57;5.87;;;21.80;92.80;;;;;;5145238;27;20484;-25
2021/07/14 04:49:03;;;;;;;8.13;5.60;;;21.70;93.10;;;;;;5144201;27;20430;-24
2021/07/14 04:51:36;;;;;;;8.67;6.43;;;21.60;93.20;;;;;;5144555;27;20487;-28
2021/07/14 04:54:07;;;;;;;9.83;6.23;;;21.50;93.00;;;;;;5136711;27;20434;-27
2021/07/14 04:56:38;;;;;;;8.10;6.10;;;21.40;93.20;;;;;;5144504;27;20520;-23
2021/07/14 04:59:09;;;;;;;7.10;6.40;;;21.40;93.20;;;;;;5143824;27;20454;-23
2021/07/14 05:01:42;;;;;;;7.83;6.03;;;21.30;93.50;;;;;;5131722;27;20441;-23
2021/07/14 05:04:13;;;;;;;9.37;6.87;;;21.20;93.60;;;;;;5144078;27;20452;-23
2021/07/14 05:06:45;;;;;;;6.73;6.10;;;21.10;93.60;;;;;;5144724;27;20423;-23
2021/07/14 05:09:17;;;;;;;7.77;6.40;;;21.10;93.70;;;;;;5144364;27;20404;-26
2021/07/14 05:11:48;;;;;;;7.60;6.50;;;20.90;94.10;;;;;;5145179;27;20476;-24
2021/07/14 05:14:20;;;;;;;8.00;6.70;;;20.90;94.30;;;;;;5133558;27;20512;-27
2021/07/14 05:16:54;;;;;;;12.07;6.60;;;20.80;94.70;;;;;;5144652;27;20478;-27
2021/07/14 05:19:25;;;;;;;9.40;6.50;;;20.80;94.30;;;;;;5144162;27;20458;-26
2021/07/14 05:21:58;;;;;;;8.27;6.30;;;20.70;94.60;;;;;;5144305;27;20443;-26
2021/07/14 05:24:29;;;;;;;12.20;7.10;;;20.70;94.80;;;;;;5142698;28;20443;-26
2021/07/14 05:27:00;;;;;;;8.73;7.47;;;20.60;95.00;;;;;;5141837;28;20493;-23
2021/07/14 05:29:31;;;;;;;7.53;6.80;;;20.50;95.10;;;;;;5138858;28;20443;-27
2021/07/14 05:32:04;;;;;;;7.87;6.97;;;20.40;95.30;;;;;;5143079;28;20600;-23
2021/07/14 05:34:35;;;;;;;11.33;7.13;;;20.30;95.50;;;;;;5142791;28;20453;-25
2021/07/14 05:37:06;;;;;;;7.53;6.73;;;20.30;95.60;;;;;;5143995;28;20444;-28
2021/07/14 05:39:38;;;;;;;13.90;7.97;;;20.10;95.90;;;;;;5141837;28;20459;-25
2021/07/14 05:42:09;;;;;;;9.47;7.30;;;20.10;96.10;;;;;;5144839;27;20465;-24
2021/07/14 05:44:40;;;;;;;9.70;7.13;;;20.10;96.20;;;;;;5143867;28;20472;-30
2021/07/14 05:47:13;;;;;;;9.03;7.07;;;20.00;96.60;;;;;;5144256;27;20442;-23
2021/07/14 05:49:44;;;;;;;8.23;6.90;;;19.90;96.70;;;;;;5143799;27;20611;-26
2021/07/14 05:52:15;;;;;;;9.77;8.13;;;19.80;97.50;;;;;;5127293;28;22053;-25
2021/07/14 05:54:46;;;;;;;8.90;6.93;;;19.70;97.60;;;;;;5131898;28;20415;-30
2021/07/14 05:57:17;;;;;;;9.90;7.50;;;19.70;98.20;;;;;;5144457;28;20475;-25
2021/07/14 05:59:57;;;;;;;13.03;8.27;;;19.60;98.30;;;;;;5142875;27;20441;-23
2021/07/14 06:02:30;;;;;;;14.33;8.47;;;19.60;98.50;;;;;;5143861;28;20443;-24
2021/07/14 06:05:01;;;;;;;11.33;7.40;;;19.50;98.60;;;;;;5143400;28;21294;-26
2021/07/14 06:07:31;;;;;;;10.80;8.00;;;19.40;98.60;;;;;;5144359;27;20525;-24
2021/07/14 06:10:02;;;;;;;9.60;7.30;;;19.30;99.00;;;;;;5145679;27;20459;-25
2021/07/14 06:12:33;;;;;;;8.90;7.30;;;19.20;99.30;;;;;;5131090;27;20515;-24
2021/07/14 06:15:05;;;;;;;10.30;8.00;;;19.20;99.20;;;;;;5147678;27;20474;-26
2021/07/14 06:17:37;;;;;;;10.57;8.10;;;19.20;98.50;;;;;;5147728;27;20452;-23
2021/07/14 06:20:14;;;;;;;9.53;8.10;;;19.10;98.60;;;;;;5147381;27;20623;-29
2021/07/14 06:22:48;;;;;;;10.10;7.93;;;19.10;98.50;;;;;;5140175;27;20456;-25
2021/07/14 06:25:21;;;;;;;11.53;8.30;;;19.10;98.60;;;;;;5147996;27;20440;-24
2021/07/14 06:27:56;;;;;;;11.53;8.43;;;18.90;98.90;;;;;;5147378;27;20437;-23
2021/07/14 06:30:30;;;;;;;11.47;7.70;;;18.90;99.40;;;;;;5147883;27;20440;-23
2021/07/14 06:33:03;;;;;;;11.47;8.77;;;18.80;99.40;;;;;;5147027;27;20480;-26
2021/07/14 06:35:34;;;;;;;9.60;8.03;;;18.80;99.60;;;;;;5146931;27;20448;-28
2021/07/14 06:38:05;;;;;;;9.50;7.47;;;18.70;99.80;;;;;;5147025;27;20619;-27
2021/07/14 06:40:37;;;;;;;11.17;7.90;;;18.70;99.90;;;;;;5146253;27;20433;-29
2021/07/14 06:43:15;;;;;;;10.03;8.30;;;18.60;99.90;;;;;;5147464;27;20785;-22
2021/07/14 06:45:47;;;;;;;13.77;9.33;;;18.60;99.90;;;;;;5146946;27;20930;-23
2021/07/14 06:48:20;;;;;;;10.63;8.53;;;18.50;99.90;;;;;;5146830;27;20449;-23
2021/07/14 06:50:51;;;;;;;10.03;7.80;;;18.50;99.90;;;;;;5146708;27;20483;-24
2021/07/14 06:53:22;;;;;;;9.23;8.20;;;18.40;99.90;;;;;;5147031;27;20476;-24
2021/07/14 06:55:59;;;;;;;11.37;8.70;;;18.40;99.90;;;;;;5146992;27;20452;-24
2021/07/14 06:58:36;;;;;;;10.40;8.57;;;18.40;99.90;;;;;;5146650;27;20495;-23
2021/07/14 07:01:07;;;;;;;9.80;8.23;;;18.40;99.90;;;;;;5137524;27;20447;-23
2021/07/14 07:03:43;;;;;;;9.53;7.70;;;18.20;99.90;;;;;;5146822;27;20528;-23
2021/07/14 07:06:14;;;;;;;11.23;7.83;;;18.20;99.90;;;;;;5146189;27;20445;-23
2021/07/14 07:08:46;;;;;;;10.20;7.93;;;18.20;99.90;;;;;;5145452;27;20507;-23
2021/07/14 07:11:20;;;;;;;11.33;9.10;;;18.10;99.90;;;;;;5146848;27;20481;-24
2021/07/14 07:13:57;;;;;;;8.50;7.47;;;18.10;99.90;;;;;;5145951;27;20433;-24
2021/07/14 07:16:28;;;;;;;10.00;8.30;;;18.10;99.90;;;;;;5147185;27;20475;-22
2021/07/14 07:19:01;;;;;;;9.73;7.60;;;18.00;99.90;;;;;;5145769;27;20489;-25
2021/07/14 07:21:32;;;;;;;9.83;8.20;;;18.00;99.90;;;;;;5146416;27;20452;-23
2021/07/14 07:24:06;;;;;;;10.37;8.30;;;17.90;99.90;;;;;;5145962;27;20445;-23
2021/07/14 07:26:39;;;;;;;11.40;8.20;;;17.80;99.90;;;;;;5145982;27;20464;-23
2021/07/14 07:29:25;;;;;;;10.23;7.50;;;17.80;99.90;;;;;;5143062;27;20444;-23
2021/07/14 07:31:56;;;;;;;10.53;8.53;;;17.80;99.90;;;;;;5146533;27;20465;-24
2021/07/14 07:34:32;;;;;;;10.20;7.77;;;17.70;99.90;;;;;;5145407;27;20990;-25
2021/07/14 07:37:04;;;;;;;10.93;9.73;;;17.70;99.90;;;;;;5139642;27;20619;-26
2021/07/14 07:39:39;;;;;;;9.47;8.10;;;17.70;99.90;;;;;;5145241;27;20476;-22
2021/07/14 07:42:10;;;;;;;9.10;8.07;;;17.60;99.90;;;;;;5146289;27;20452;-24
2021/07/14 07:44:44;;;;;;;8.93;8.00;;;17.60;99.90;;;;;;5145805;27;20464;-22
2021/07/14 07:47:17;;;;;;;10.07;7.40;;;17.60;99.90;;;;;;5146115;27;20441;-28
2021/07/14 07:49:54;;;;;;;9.10;8.10;;;17.50;99.90;;;;;;5145875;27;20455;-23
2021/07/14 07:52:29;;;;;;;9.20;7.63;;;17.50;99.90;;;;;;5145512;27;20484;-22
2021/07/14 07:55:06;;;;;;;13.33;8.90;;;17.40;99.90;;;;;;5146272;27;20449;-28
2021/07/14 07:57:37;;;;;;;10.00;7.93;;;17.40;99.90;;;;;;5144916;27;20480;-23
2021/07/14 08:00:12;;;;;;;13.47;8.60;;;17.40;99.90;;;;;;5137129;27;20457;-24
2021/07/14 08:02:46;;;;;;;8.73;7.80;;;17.40;99.90;;;;;;5145977;27;20471;-23
2021/07/14 08:05:19;;;;;;;10.00;8.07;;;17.40;99.90;;;;;;5146144;27;20432;-24
2021/07/14 08:07:51;;;;;;;9.10;7.90;;;17.40;99.90;;;;;;5141519;27;20453;-25
2021/07/14 08:10:23;;;;;;;9.70;7.40;;;17.30;99.90;;;;;;5140105;27;20475;-23
2021/07/14 08:12:56;;;;;;;10.50;7.97;;;17.20;99.90;;;;;;5134088;27;20496;-32
2021/07/14 08:15:35;;;;;;;9.83;7.90;;;17.20;99.90;;;;;;5145174;27;20436;-27
2021/07/14 08:18:06;;;;;;;10.17;7.90;;;17.10;99.90;;;;;;5145018;27;20444;-27
2021/07/14 08:20:39;;;;;;;8.93;7.80;;;17.10;99.90;;;;;;5145268;27;20462;-26
2021/07/14 08:23:10;;;;;;;11.40;8.40;;;17.10;99.90;;;;;;5145019;27;20477;-27
2021/07/14 08:25:41;;;;;;;11.00;7.43;;;17.00;99.90;;;;;;5145705;27;20533;-26
2021/07/14 08:28:12;;;;;;;8.93;7.90;;;17.00;99.90;;;;;;5144399;27;20460;-25
2021/07/14 08:30:43;;;;;;;11.77;7.43;;;17.00;99.90;;;;;;5145404;27;20473;-25
2021/07/14 08:33:14;;;;;;;11.27;7.87;;;16.90;99.90;;;;;;5144341;27;20487;-34
2021/07/14 08:35:47;;;;;;;10.43;8.17;;;17.00;99.90;;;;;;5145361;27;20463;-24
2021/07/14 08:38:18;;;;;;;8.27;7.07;;;17.00;99.90;;;;;;5144132;27;20461;-24
2021/07/14 08:40:51;;;;;;;9.20;7.47;;;16.80;99.90;;;;;;5143782;27;20445;-24
2021/07/14 08:43:35;;;;;;;9.73;6.70;;;16.80;99.90;;;;;;5144777;27;20448;-26
2021/07/14 08:46:26;;;;;;;8.87;7.47;;;16.70;99.90;;;;;;5145100;27;20518;-23
2021/07/14 08:49:03;;;;;;;10.87;8.40;;;16.60;99.90;;;;;;5142885;27;20484;-28
2021/07/14 08:51:37;;;;;;;9.67;7.80;;;16.60;99.90;;;;;;5145151;27;20432;-22
2021/07/14 08:54:08;;;;;;;9.43;7.60;;;16.50;99.90;;;;;;5144018;27;20511;-28
2021/07/14 08:56:40;;;;;;;11.10;8.63;;;16.50;99.90;;;;;;5144738;27;20480;-25
2021/07/14 08:59:19;;;;;;;9.07;7.43;;;16.50;99.90;;;;;;5143867;27;20448;-25
2021/07/14 09:01:51;;;;;;;10.40;7.20;;;16.40;99.90;;;;;;5129285;27;20444;-24
2021/07/14 09:04:24;;;;;;;9.53;7.27;;;16.40;99.90;;;;;;5144742;27;20449;-25
2021/07/14 09:06:57;;;;;;;10.00;7.50;;;16.40;99.90;;;;;;5143983;27;20440;-28
2021/07/14 09:09:34;;;;;;;8.37;6.70;;;16.40;99.90;;;;;;5144025;27;20445;-27
2021/07/14 09:12:11;;;;;;;7.97;6.33;;;16.30;99.90;;;;;;5144918;27;20433;-28
2021/07/14 09:14:43;;;;;;;9.63;6.97;;;16.30;99.90;;;;;;5143758;27;20483;-24
2021/07/14 09:17:26;;;;;;;8.00;7.20;;;16.30;99.90;;;;;;5144193;27;20444;-27
2021/07/14 09:20:10;;;;;;;10.83;7.63;;;16.20;99.90;;;;;;5144961;27;20449;-26
2021/07/14 09:22:43;;;;;;;8.53;6.77;;;16.10;99.90;;;;;;5143896;28;20463;-26
2021/07/14 09:25:18;;;;;;;9.37;6.70;;;16.10;99.90;;;;;;5144523;27;20477;-25
2021/07/14 09:27:56;;;;;;;8.10;6.63;;;16.20;99.90;;;;;;5143760;27;20448;-25
2021/07/14 09:30:28;;;;;;;8.50;6.37;;;16.10;99.90;;;;;;5144918;27;20445;-23
2021/07/14 09:33:06;;;;;;;10.17;6.63;;;16.10;99.90;;;;;;5144109;27;20480;-25
2021/07/14 09:35:42;;;;;;;9.03;7.33;;;16.10;99.90;;;;;;5144128;27;20452;-32
2021/07/14 09:38:19;;;;;;;9.13;6.97;;;16.00;99.90;;;;;;5143773;27;20454;-23
2021/07/14 09:40:52;;;;;;;7.20;5.60;;;15.90;99.90;;;;;;5144333;27;20457;-26
2021/07/14 09:43:25;;;;;;;6.47;5.70;;;15.90;99.90;;;;;;5146757;27;21003;-26
2021/07/14 09:45:57;;;;;;;8.47;6.40;;;15.90;99.90;;;;;;5148799;27;20477;-24
2021/07/14 09:48:54;;;;;;;8.20;5.90;;;15.90;99.90;;;;;;5132285;27;20451;-24
2021/07/14 09:51:26;;;;;;;9.13;6.00;;;15.90;99.90;;;;;;5143073;27;20478;-24
2021/07/14 09:54:01;;;;;;;7.87;5.60;;;15.80;99.90;;;;;;5147676;27;20887;-25
2021/07/14 09:56:37;;;;;;;8.70;6.40;;;15.80;99.90;;;;;;5148554;27;20455;-22
2021/07/14 09:59:10;;;;;;;6.77;5.80;;;15.70;99.90;;;;;;5146972;27;21000;-22
2021/07/14 10:01:45;;;;;;;6.73;5.60;;;15.70;99.90;;;;;;5148318;27;20437;-23
2021/07/14 10:04:27;;;;;;;6.37;5.30;;;15.70;99.90;;;;;;5148681;27;20417;-27
2021/07/14 10:07:09;;;;;;;6.43;5.80;;;15.60;99.90;;;;;;5144203;27;20467;-26
2021/07/14 10:09:43;;;;;;;9.97;6.13;;;15.50;99.90;;;;;;5146549;27;20932;-23
2021/07/14 10:12:28;;;;;;;7.23;6.33;;;15.50;99.90;;;;;;5148242;27;20532;-22
2021/07/14 10:15:00;;;;;;;7.43;5.70;;;15.50;99.90;;;;;;5147576;27;20504;-23
2021/07/14 10:17:41;;;;;;;6.50;5.80;;;15.50;99.90;;;;;;5147410;27;20477;-25
2021/07/14 10:20:37;;;;;;;7.40;5.80;;;15.50;99.90;;;;;;5147386;27;20493;-24
2021/07/14 10:23:12;;;;;;;5.63;4.73;;;15.40;99.90;;;;;;5141686;27;20520;-26
2021/07/14 10:25:45;;;;;;;7.43;5.30;;;15.40;99.90;;;;;;5147605;27;20452;-26
2021/07/14 10:28:19;;;;;;;7.07;5.20;;;15.50;99.90;;;;;;5147184;27;20471;-25
2021/07/14 10:30:58;;;;;;;6.23;5.23;;;15.40;99.90;;;;;;5147477;27;20505;-22
2021/07/14 10:33:33;;;;;;;7.33;4.93;;;15.40;99.90;;;;;;5147391;27;20491;-23
2021/07/14 10:36:10;;;;;;;5.80;5.03;;;15.30;99.90;;;;;;5140921;27;20942;-23
2021/07/14 10:38:47;;;;;;;9.33;5.60;;;15.30;99.90;;;;;;5146505;27;20506;-25
2021/07/14 10:41:19;;;;;;;6.27;4.33;;;15.30;99.90;;;;;;5146464;27;20466;-22
2021/07/14 10:43:55;;;;;;;5.50;4.63;;;15.30;99.90;;;;;;5146680;27;20850;-24
2021/07/14 10:46:30;;;;;;;6.37;4.87;;;15.30;99.90;;;;;;5147488;27;20479;-25
2021/07/14 10:49:03;;;;;;;6.30;4.47;;;15.20;99.90;;;;;;5146843;27;20480;-22
2021/07/14 10:51:39;;;;;;;6.33;4.70;;;15.20;99.90;;;;;;5147075;27;20449;-25
2021/07/14 10:54:12;;;;;;;4.90;4.40;;;15.20;99.90;;;;;;5129435;27;20480;-27
2021/07/14 10:56:59;;;;;;;;;;;;;;;;;;;;;
2021/07/14 10:59:32;;;;;;;5.80;4.70;;;15.20;99.90;;;;;;5141047;27;20453;-23
2021/07/14 11:02:06;;;;;;;4.87;4.33;;;15.20;99.90;;;;;;5147113;27;20433;-24
2021/07/14 11:04:55;;;;;;;4.77;4.27;;;15.20;99.90;;;;;;5147173;27;20516;-23
2021/07/14 11:07:41;;;;;;;6.60;4.80;;;15.10;99.90;;;;;;5145886;27;20452;-24
2021/07/14 11:10:30;;;;;;;8.33;5.23;;;15.10;99.90;;;;;;5146282;27;20485;-26
2021/07/14 11:13:32;;;;;;;5.30;4.50;;;15.10;99.90;;;;;;5146321;27;20449;-24
2021/07/14 11:16:25;;;;;;;5.33;4.40;;;15.10;99.90;;;;;;5136689;27;20436;-24
2021/07/14 11:19:04;;;;;;;6.23;4.50;;;15.10;99.90;;;;;;5145188;27;20518;-23
2021/07/14 11:21:50;;;;;;;5.03;4.53;;;15.10;99.90;;;;;;5146126;27;20472;-24
2021/07/14 11:24:55;;;;;;;6.53;4.83;;;15.10;99.90;;;;;;5146754;27;20440;-22
2021/07/14 11:28:00;;;;;;;5.37;4.60;;;15.20;99.90;;;;;;5141328;27;20459;-25
2021/07/14 11:30:41;;;;;;;5.20;4.70;;;15.20;99.90;;;;;;5144769;27;20463;-24
2021/07/14 11:33:19;;;;;;;4.97;4.40;;;15.20;99.90;;;;;;5129693;27;20445;-24
2021/07/14 11:35:55;;;;;;;8.73;5.60;;;15.30;99.90;;;;;;5146347;27;20441;-23
2021/07/14 11:38:31;;;;;;;5.30;4.80;;;15.30;99.90;;;;;;5146507;27;20464;-22
2021/07/14 11:41:05;;;;;;;5.37;4.40;;;15.50;99.90;;;;;;5145496;27;20444;-23
2021/07/14 11:43:44;;;;;;;7.00;4.50;;;15.40;99.90;;;;;;5145441;27;20459;-27
2021/07/14 11:46:38;;;;;;;5.33;4.30;;;15.50;99.90;;;;;;5137378;27;20477;-24
2021/07/14 11:49:10;;;;;;;5.20;4.37;;;15.60;99.90;;;;;;5145318;27;20441;-27
2021/07/14 11:51:43;;;;;;;8.10;4.60;;;15.60;99.90;;;;;;5146348;27;20473;-23
2021/07/14 11:54:28;;;;;;;5.20;4.70;;;15.70;99.90;;;;;;5145742;27;20528;-22
2021/07/14 11:56:59;;;;;;;6.07;3.93;;;15.60;99.90;;;;;;5145720;27;20464;-26
2021/07/14 11:59:32;;;;;;;4.10;3.40;;;15.60;99.90;;;;;;5145402;27;20474;-22
2021/07/14 12:02:07;;;;;;;6.30;4.50;;;15.60;99.90;;;;;;5145400;27;20588;-23
2021/07/14 12:05:06;;;;;;;6.77;4.17;;;15.60;99.90;;;;;;5135624;27;20473;-24
2021/07/14 12:07:44;;;;;;;4.83;4.30;;;15.60;99.90;;;;;;5145745;27;20488;-23
2021/07/14 12:10:18;;;;;;;4.83;4.23;;;15.70;99.90;;;;;;5144861;27;20459;-22
2021/07/14 12:12:52;;;;;;;4.50;4.07;;;15.70;99.90;;;;;;5145143;27;20547;-23
2021/07/14 12:15:23;;;;;;;4.70;4.30;;;15.70;99.90;;;;;;5140762;27;20649;-24
2021/07/14 12:18:08;;;;;;;4.60;4.10;;;15.70;99.90;;;;;;5145101;27;20533;-22
2021/07/14 12:20:50;;;;;;;4.70;3.80;;;15.80;99.90;;;;;;5144470;27;20903;-23
2021/07/14 12:23:25;;;;;;;5.00;4.10;;;15.80;99.90;;;;;;5137759;27;20543;-25
2021/07/14 12:26:06;;;;;;;3.67;3.27;;;15.80;99.90;;;;;;5144910;27;20722;-23
2021/07/14 12:28:43;;;;;;;4.20;3.03;;;15.90;99.90;;;;;;5144697;27;20445;-24
2021/07/14 12:31:19;;;;;;;4.00;3.17;;;15.90;99.90;;;;;;5124820;28;20566;-24
2021/07/14 12:33:57;;;;;;;2.80;2.60;;;15.80;99.90;;;;;;5142653;27;20460;-23
2021/07/14 12:36:33;;;;;;;4.83;3.50;;;15.80;99.90;;;;;;5143338;27;20449;-27
2021/07/14 12:39:08;;;;;;;3.07;2.70;;;15.90;99.90;;;;;;5145195;27;20590;-23
2021/07/14 12:41:39;;;;;;;3.40;3.10;;;15.80;99.90;;;;;;5141767;27;20881;-25
2021/07/14 12:44:12;;;;;;;3.53;2.83;;;15.80;99.90;;;;;;5144323;27;20475;-22
2021/07/14 12:46:51;;;;;;;2.97;2.70;;;15.90;99.90;;;;;;5144769;27;20468;-23
2021/07/14 12:49:29;;;;;;;4.03;2.60;;;15.90;99.90;;;;;;5144572;27;20455;-22
2021/07/14 12:52:10;;;;;;;3.27;2.80;;;15.90;99.90;;;;;;5144039;27;20468;-22
2021/07/14 12:54:42;;;;;;;2.70;2.47;;;15.90;99.90;;;;;;5144980;27;20859;-23
2021/07/14 12:57:17;;;;;;;2.43;2.23;;;15.80;99.90;;;;;;5145199;27;20445;-24
2021/07/14 12:59:59;;;;;;;2.53;2.33;;;15.90;99.90;;;;;;5144482;27;20504;-25
2021/07/14 13:02:43;;;;;;;2.87;2.23;;;15.80;99.90;;;;;;5144547;27;20481;-23
2021/07/14 13:05:19;;;;;;;3.73;2.93;;;15.90;99.90;;;;;;5143046;27;20568;-24
2021/07/14 13:07:52;;;;;;;2.73;2.53;;;15.90;99.90;;;;;;5144951;27;20820;-22
2021/07/14 13:10:25;;;;;;;2.27;2.07;;;16.00;99.90;;;;;;5144334;27;20579;-23
2021/07/14 13:12:57;;;;;;;2.27;1.83;;;16.00;99.90;;;;;;5144225;27;20516;-23
2021/07/14 13:15:32;;;;;;;2.47;2.27;;;16.00;99.90;;;;;;5144373;28;20488;-23
2021/07/14 13:18:07;;;;;;;2.50;2.30;;;16.00;99.90;;;;;;5141413;27;20478;-26
2021/07/14 13:20:41;;;;;;;2.50;2.07;;;16.10;99.90;;;;;;5144085;27;20478;-22
2021/07/14 13:23:14;;;;;;;2.80;2.43;;;16.10;99.90;;;;;;5142129;28;20445;-24
2021/07/14 13:25:50;;;;;;;2.83;2.20;;;16.10;99.90;;;;;;5141745;28;20445;-23
2021/07/14 13:28:23;;;;;;;3.23;2.47;;;16.10;99.90;;;;;;5143090;28;20463;-27